sensor_id;sensor_type;location;lat;lon;timestamp;P1;durP1;ratioP1;P2;durP2;ratioP2
15645;SDS011;7922;43.622;1.476;2023-04-24T00:00:04;5.90;;;2.60;;
15645;SDS011;7922;43.622;1.476;2023-04-24T00:02:30;4.33;;;2.60;;
15645;SDS011;7922;43.622;1.476;2023-04-24T00:04:56;2.90;;;2.57;;
15645;SDS011;7922;43.622;1.476;2023-04-24T00:07:22;5.23;;;2.60;;
15645;SDS011;7922;43.622;1.476;2023-04-24T00:09:48;6.07;;;2.90;;
15645;SDS011;7922;43.622;1.476;2023-04-24T00:12:13;4.77;;;2.80;;
15645;SDS011;7922;43.622;1.476;2023-04-24T00:14:38;3.00;;;2.57;;
15645;SDS011;7922;43.622;1.476;2023-04-24T00:17:03;4.73;;;2.50;;
15645;SDS011;7922;43.622;1.476;2023-04-24T00:19:29;5.13;;;2.70;;
15645;SDS011;7922;43.622;1.476;2023-04-24T00:21:54;3.97;;;3.00;;
15645;SDS011;7922;43.622;1.476;2023-04-24T00:24:20;3.53;;;2.60;;
15645;SDS011;7922;43.622;1.476;2023-04-24T00:26:45;5.27;;;3.00;;
15645;SDS011;7922;43.622;1.476;2023-04-24T00:29:11;4.57;;;2.70;;
15645;SDS011;7922;43.622;1.476;2023-04-24T00:31:36;3.63;;;2.60;;
15645;SDS011;7922;43.622;1.476;2023-04-24T00:34:02;4.33;;;2.43;;
15645;SDS011;7922;43.622;1.476;2023-04-24T00:36:28;7.50;;;2.63;;
15645;SDS011;7922;43.622;1.476;2023-04-24T00:38:54;4.60;;;2.67;;
15645;SDS011;7922;43.622;1.476;2023-04-24T00:41:20;3.87;;;2.73;;
15645;SDS011;7922;43.622;1.476;2023-04-24T00:43:45;9.03;;;2.90;;
15645;SDS011;7922;43.622;1.476;2023-04-24T00:46:11;4.30;;;2.40;;
15645;SDS011;7922;43.622;1.476;2023-04-24T00:48:37;5.17;;;2.40;;
15645;SDS011;7922;43.622;1.476;2023-04-24T00:51:04;4.63;;;3.10;;
15645;SDS011;7922;43.622;1.476;2023-04-24T00:53:29;7.53;;;3.27;;
15645;SDS011;7922;43.622;1.476;2023-04-24T00:55:55;4.80;;;3.03;;
15645;SDS011;7922;43.622;1.476;2023-04-24T00:58:21;3.47;;;2.80;;
15645;SDS011;7922;43.622;1.476;2023-04-24T01:00:47;3.87;;;2.70;;
15645;SDS011;7922;43.622;1.476;2023-04-24T01:03:14;5.23;;;2.90;;
15645;SDS011;7922;43.622;1.476;2023-04-24T01:05:40;4.37;;;2.83;;
15645;SDS011;7922;43.622;1.476;2023-04-24T01:08:06;2.87;;;2.50;;
15645;SDS011;7922;43.622;1.476;2023-04-24T01:10:32;5.03;;;2.63;;
15645;SDS011;7922;43.622;1.476;2023-04-24T01:12:59;4.07;;;2.93;;
15645;SDS011;7922;43.622;1.476;2023-04-24T01:15:24;3.37;;;3.07;;
15645;SDS011;7922;43.622;1.476;2023-04-24T01:17:50;5.73;;;3.10;;
15645;SDS011;7922;43.622;1.476;2023-04-24T01:20:15;6.57;;;3.20;;
15645;SDS011;7922;43.622;1.476;2023-04-24T01:22:42;8.93;;;2.90;;
15645;SDS011;7922;43.622;1.476;2023-04-24T01:25:07;6.87;;;3.27;;
15645;SDS011;7922;43.622;1.476;2023-04-24T01:27:33;4.47;;;3.03;;
15645;SDS011;7922;43.622;1.476;2023-04-24T01:29:58;5.83;;;3.47;;
15645;SDS011;7922;43.622;1.476;2023-04-24T01:32:24;4.33;;;3.53;;
15645;SDS011;7922;43.622;1.476;2023-04-24T01:34:50;7.67;;;3.60;;
15645;SDS011;7922;43.622;1.476;2023-04-24T01:37:15;5.63;;;3.53;;
15645;SDS011;7922;43.622;1.476;2023-04-24T01:39:41;5.20;;;3.23;;
15645;SDS011;7922;43.622;1.476;2023-04-24T01:42:06;8.33;;;3.00;;
15645;SDS011;7922;43.622;1.476;2023-04-24T01:44:32;6.80;;;4.10;;
15645;SDS011;7922;43.622;1.476;2023-04-24T01:46:59;11.27;;;3.53;;
15645;SDS011;7922;43.622;1.476;2023-04-24T01:49:26;4.53;;;3.10;;
15645;SDS011;7922;43.622;1.476;2023-04-24T01:51:51;7.73;;;2.87;;
15645;SDS011;7922;43.622;1.476;2023-04-24T01:54:16;4.63;;;3.40;;
15645;SDS011;7922;43.622;1.476;2023-04-24T01:56:42;7.27;;;3.50;;
15645;SDS011;7922;43.622;1.476;2023-04-24T01:59:09;7.63;;;2.70;;
15645;SDS011;7922;43.622;1.476;2023-04-24T02:01:35;3.07;;;2.60;;
15645;SDS011;7922;43.622;1.476;2023-04-24T02:04:02;4.83;;;2.50;;
15645;SDS011;7922;43.622;1.476;2023-04-24T02:06:28;6.73;;;2.77;;
15645;SDS011;7922;43.622;1.476;2023-04-24T02:08:53;5.77;;;2.30;;
15645;SDS011;7922;43.622;1.476;2023-04-24T02:11:19;4.87;;;2.90;;
15645;SDS011;7922;43.622;1.476;2023-04-24T02:13:44;6.60;;;2.77;;
15645;SDS011;7922;43.622;1.476;2023-04-24T02:16:09;7.13;;;2.80;;
15645;SDS011;7922;43.622;1.476;2023-04-24T02:18:35;4.87;;;2.40;;
15645;SDS011;7922;43.622;1.476;2023-04-24T02:21:00;9.33;;;2.30;;
15645;SDS011;7922;43.622;1.476;2023-04-24T02:23:25;4.17;;;2.10;;
15645;SDS011;7922;43.622;1.476;2023-04-24T02:25:51;5.10;;;2.60;;
15645;SDS011;7922;43.622;1.476;2023-04-24T02:28:16;4.90;;;2.33;;
15645;SDS011;7922;43.622;1.476;2023-04-24T02:30:41;6.37;;;2.43;;
15645;SDS011;7922;43.622;1.476;2023-04-24T02:33:06;9.03;;;3.00;;
15645;SDS011;7922;43.622;1.476;2023-04-24T02:35:32;7.80;;;2.67;;
15645;SDS011;7922;43.622;1.476;2023-04-24T02:37:57;6.30;;;2.57;;
15645;SDS011;7922;43.622;1.476;2023-04-24T02:40:22;6.73;;;2.90;;
15645;SDS011;7922;43.622;1.476;2023-04-24T02:42:47;10.63;;;2.93;;
15645;SDS011;7922;43.622;1.476;2023-04-24T02:45:13;4.57;;;2.53;;
15645;SDS011;7922;43.622;1.476;2023-04-24T02:47:38;9.47;;;2.40;;
15645;SDS011;7922;43.622;1.476;2023-04-24T02:50:03;6.17;;;2.27;;
15645;SDS011;7922;43.622;1.476;2023-04-24T02:52:29;6.50;;;2.80;;
15645;SDS011;7922;43.622;1.476;2023-04-24T02:54:54;6.23;;;2.60;;
15645;SDS011;7922;43.622;1.476;2023-04-24T02:57:20;4.03;;;1.93;;
15645;SDS011;7922;43.622;1.476;2023-04-24T02:59:45;9.37;;;2.53;;
15645;SDS011;7922;43.622;1.476;2023-04-24T03:02:10;7.43;;;2.83;;
15645;SDS011;7922;43.622;1.476;2023-04-24T03:04:36;4.73;;;2.10;;
15645;SDS011;7922;43.622;1.476;2023-04-24T03:07:01;5.77;;;2.43;;
15645;SDS011;7922;43.622;1.476;2023-04-24T03:09:26;3.83;;;2.10;;
15645;SDS011;7922;43.622;1.476;2023-04-24T03:11:51;6.87;;;2.80;;
15645;SDS011;7922;43.622;1.476;2023-04-24T03:14:17;5.00;;;2.33;;
15645;SDS011;7922;43.622;1.476;2023-04-24T03:16:42;5.87;;;1.87;;
15645;SDS011;7922;43.622;1.476;2023-04-24T03:19:07;5.67;;;2.20;;
15645;SDS011;7922;43.622;1.476;2023-04-24T03:21:33;5.47;;;2.43;;
15645;SDS011;7922;43.622;1.476;2023-04-24T03:23:58;3.60;;;2.13;;
15645;SDS011;7922;43.622;1.476;2023-04-24T03:26:24;4.73;;;2.10;;
15645;SDS011;7922;43.622;1.476;2023-04-24T03:28:49;8.20;;;2.03;;
15645;SDS011;7922;43.622;1.476;2023-04-24T03:31:14;5.33;;;1.80;;
15645;SDS011;7922;43.622;1.476;2023-04-24T03:33:40;5.33;;;2.23;;
15645;SDS011;7922;43.622;1.476;2023-04-24T03:36:05;8.07;;;2.27;;
15645;SDS011;7922;43.622;1.476;2023-04-24T03:38:30;7.43;;;2.20;;
15645;SDS011;7922;43.622;1.476;2023-04-24T03:40:56;5.57;;;1.97;;
15645;SDS011;7922;43.622;1.476;2023-04-24T03:43:21;5.80;;;2.40;;
15645;SDS011;7922;43.622;1.476;2023-04-24T03:45:46;3.97;;;2.53;;
15645;SDS011;7922;43.622;1.476;2023-04-24T03:48:11;6.00;;;2.30;;
15645;SDS011;7922;43.622;1.476;2023-04-24T03:50:37;3.40;;;1.90;;
15645;SDS011;7922;43.622;1.476;2023-04-24T03:53:02;5.60;;;2.13;;
15645;SDS011;7922;43.622;1.476;2023-04-24T03:55:27;5.20;;;2.50;;
15645;SDS011;7922;43.622;1.476;2023-04-24T03:57:53;6.17;;;2.30;;
15645;SDS011;7922;43.622;1.476;2023-04-24T04:00:18;5.07;;;2.37;;
15645;SDS011;7922;43.622;1.476;2023-04-24T04:02:43;4.90;;;2.50;;
15645;SDS011;7922;43.622;1.476;2023-04-24T04:05:08;5.10;;;2.20;;
15645;SDS011;7922;43.622;1.476;2023-04-24T04:07:34;7.60;;;2.30;;
15645;SDS011;7922;43.622;1.476;2023-04-24T04:09:59;4.63;;;2.30;;
15645;SDS011;7922;43.622;1.476;2023-04-24T04:12:24;3.57;;;2.23;;
15645;SDS011;7922;43.622;1.476;2023-04-24T04:14:49;4.90;;;2.30;;
15645;SDS011;7922;43.622;1.476;2023-04-24T04:17:15;6.60;;;2.40;;
15645;SDS011;7922;43.622;1.476;2023-04-24T04:19:40;5.53;;;2.50;;
15645;SDS011;7922;43.622;1.476;2023-04-24T04:22:05;4.87;;;2.33;;
15645;SDS011;7922;43.622;1.476;2023-04-24T04:24:31;5.87;;;2.27;;
15645;SDS011;7922;43.622;1.476;2023-04-24T04:26:56;5.20;;;2.40;;
15645;SDS011;7922;43.622;1.476;2023-04-24T04:29:21;4.00;;;2.30;;
15645;SDS011;7922;43.622;1.476;2023-04-24T04:31:47;5.20;;;2.43;;
15645;SDS011;7922;43.622;1.476;2023-04-24T04:34:12;7.07;;;3.10;;
15645;SDS011;7922;43.622;1.476;2023-04-24T04:36:38;5.37;;;2.57;;
15645;SDS011;7922;43.622;1.476;2023-04-24T04:39:03;6.27;;;2.60;;
15645;SDS011;7922;43.622;1.476;2023-04-24T04:41:28;8.50;;;2.70;;
15645;SDS011;7922;43.622;1.476;2023-04-24T04:43:53;5.43;;;2.40;;
15645;SDS011;7922;43.622;1.476;2023-04-24T04:46:19;5.03;;;2.50;;
15645;SDS011;7922;43.622;1.476;2023-04-24T04:48:44;5.13;;;2.37;;
15645;SDS011;7922;43.622;1.476;2023-04-24T04:51:09;4.23;;;2.70;;
15645;SDS011;7922;43.622;1.476;2023-04-24T04:53:35;5.97;;;2.50;;
15645;SDS011;7922;43.622;1.476;2023-04-24T04:56:00;6.37;;;2.60;;
15645;SDS011;7922;43.622;1.476;2023-04-24T04:58:25;4.93;;;2.57;;
15645;SDS011;7922;43.622;1.476;2023-04-24T05:00:51;8.13;;;2.60;;
15645;SDS011;7922;43.622;1.476;2023-04-24T05:03:16;7.03;;;2.20;;
15645;SDS011;7922;43.622;1.476;2023-04-24T05:05:41;4.80;;;2.50;;
15645;SDS011;7922;43.622;1.476;2023-04-24T05:08:07;4.97;;;2.97;;
15645;SDS011;7922;43.622;1.476;2023-04-24T05:10:32;8.07;;;2.37;;
15645;SDS011;7922;43.622;1.476;2023-04-24T05:12:58;8.27;;;3.37;;
15645;SDS011;7922;43.622;1.476;2023-04-24T05:15:23;7.90;;;2.83;;
15645;SDS011;7922;43.622;1.476;2023-04-24T05:17:48;8.50;;;2.73;;
15645;SDS011;7922;43.622;1.476;2023-04-24T05:20:13;5.43;;;2.43;;
15645;SDS011;7922;43.622;1.476;2023-04-24T05:22:39;5.97;;;2.23;;
15645;SDS011;7922;43.622;1.476;2023-04-24T05:25:04;7.00;;;2.70;;
15645;SDS011;7922;43.622;1.476;2023-04-24T05:27:29;7.43;;;2.20;;
15645;SDS011;7922;43.622;1.476;2023-04-24T05:29:55;8.03;;;2.53;;
15645;SDS011;7922;43.622;1.476;2023-04-24T05:32:20;5.17;;;2.17;;
15645;SDS011;7922;43.622;1.476;2023-04-24T05:34:45;8.17;;;2.50;;
15645;SDS011;7922;43.622;1.476;2023-04-24T05:37:10;5.53;;;2.53;;
15645;SDS011;7922;43.622;1.476;2023-04-24T05:39:36;6.87;;;2.27;;
15645;SDS011;7922;43.622;1.476;2023-04-24T05:42:01;8.10;;;2.73;;
15645;SDS011;7922;43.622;1.476;2023-04-24T05:44:27;6.77;;;2.63;;
15645;SDS011;7922;43.622;1.476;2023-04-24T05:46:52;8.80;;;2.30;;
15645;SDS011;7922;43.622;1.476;2023-04-24T05:49:18;7.40;;;2.43;;
15645;SDS011;7922;43.622;1.476;2023-04-24T05:51:43;10.00;;;2.57;;
15645;SDS011;7922;43.622;1.476;2023-04-24T05:54:08;7.70;;;2.70;;
15645;SDS011;7922;43.622;1.476;2023-04-24T05:56:33;9.90;;;2.70;;
15645;SDS011;7922;43.622;1.476;2023-04-24T05:58:59;7.63;;;2.70;;
15645;SDS011;7922;43.622;1.476;2023-04-24T06:01:24;9.50;;;2.70;;
15645;SDS011;7922;43.622;1.476;2023-04-24T06:03:49;6.17;;;2.70;;
15645;SDS011;7922;43.622;1.476;2023-04-24T06:06:15;5.23;;;2.83;;
15645;SDS011;7922;43.622;1.476;2023-04-24T06:08:40;6.63;;;2.67;;
15645;SDS011;7922;43.622;1.476;2023-04-24T06:11:05;5.97;;;2.97;;
15645;SDS011;7922;43.622;1.476;2023-04-24T06:13:31;7.83;;;3.43;;
15645;SDS011;7922;43.622;1.476;2023-04-24T06:15:56;6.30;;;2.50;;
15645;SDS011;7922;43.622;1.476;2023-04-24T06:18:21;5.60;;;2.57;;
15645;SDS011;7922;43.622;1.476;2023-04-24T06:20:46;7.80;;;2.30;;
15645;SDS011;7922;43.622;1.476;2023-04-24T06:23:12;9.30;;;2.70;;
15645;SDS011;7922;43.622;1.476;2023-04-24T06:25:37;6.80;;;2.80;;
15645;SDS011;7922;43.622;1.476;2023-04-24T06:28:03;8.93;;;2.73;;
15645;SDS011;7922;43.622;1.476;2023-04-24T06:30:29;12.53;;;3.43;;
15645;SDS011;7922;43.622;1.476;2023-04-24T06:32:54;8.40;;;2.50;;
15645;SDS011;7922;43.622;1.476;2023-04-24T06:35:19;8.00;;;2.53;;
15645;SDS011;7922;43.622;1.476;2023-04-24T06:37:45;8.13;;;4.03;;
15645;SDS011;7922;43.622;1.476;2023-04-24T06:40:10;5.80;;;2.87;;
15645;SDS011;7922;43.622;1.476;2023-04-24T06:42:36;9.40;;;2.50;;
15645;SDS011;7922;43.622;1.476;2023-04-24T06:45:01;8.53;;;3.27;;
15645;SDS011;7922;43.622;1.476;2023-04-24T06:47:27;14.57;;;3.03;;
15645;SDS011;7922;43.622;1.476;2023-04-24T06:49:52;8.10;;;2.60;;
15645;SDS011;7922;43.622;1.476;2023-04-24T06:52:18;10.57;;;2.90;;
15645;SDS011;7922;43.622;1.476;2023-04-24T06:54:43;6.07;;;2.57;;
15645;SDS011;7922;43.622;1.476;2023-04-24T06:57:09;7.27;;;2.87;;
15645;SDS011;7922;43.622;1.476;2023-04-24T06:59:34;8.90;;;2.63;;
15645;SDS011;7922;43.622;1.476;2023-04-24T07:01:59;9.17;;;3.30;;
15645;SDS011;7922;43.622;1.476;2023-04-24T07:04:24;5.43;;;2.60;;
15645;SDS011;7922;43.622;1.476;2023-04-24T07:06:50;10.40;;;3.03;;
15645;SDS011;7922;43.622;1.476;2023-04-24T07:09:15;7.40;;;2.70;;
15645;SDS011;7922;43.622;1.476;2023-04-24T07:11:40;8.77;;;2.87;;
15645;SDS011;7922;43.622;1.476;2023-04-24T07:14:06;10.93;;;3.00;;
15645;SDS011;7922;43.622;1.476;2023-04-24T07:16:31;9.73;;;3.20;;
15645;SDS011;7922;43.622;1.476;2023-04-24T07:18:57;8.60;;;3.17;;
15645;SDS011;7922;43.622;1.476;2023-04-24T07:21:22;10.00;;;3.07;;
15645;SDS011;7922;43.622;1.476;2023-04-24T07:23:47;5.90;;;2.57;;
15645;SDS011;7922;43.622;1.476;2023-04-24T07:26:13;5.03;;;2.63;;
15645;SDS011;7922;43.622;1.476;2023-04-24T07:28:38;5.33;;;2.13;;
15645;SDS011;7922;43.622;1.476;2023-04-24T07:31:03;5.50;;;2.57;;
15645;SDS011;7922;43.622;1.476;2023-04-24T07:33:28;5.23;;;2.20;;
15645;SDS011;7922;43.622;1.476;2023-04-24T07:35:54;6.53;;;1.80;;
15645;SDS011;7922;43.622;1.476;2023-04-24T07:38:19;4.53;;;1.90;;
15645;SDS011;7922;43.622;1.476;2023-04-24T07:40:44;4.10;;;1.83;;
15645;SDS011;7922;43.622;1.476;2023-04-24T07:43:10;3.23;;;1.93;;
15645;SDS011;7922;43.622;1.476;2023-04-24T07:45:35;3.57;;;2.00;;
15645;SDS011;7922;43.622;1.476;2023-04-24T07:48:00;4.77;;;2.03;;
15645;SDS011;7922;43.622;1.476;2023-04-24T07:50:26;4.70;;;2.30;;
15645;SDS011;7922;43.622;1.476;2023-04-24T07:52:51;5.07;;;2.23;;
15645;SDS011;7922;43.622;1.476;2023-04-24T07:55:16;3.73;;;1.77;;
15645;SDS011;7922;43.622;1.476;2023-04-24T07:57:42;6.97;;;2.13;;
15645;SDS011;7922;43.622;1.476;2023-04-24T08:00:07;3.57;;;1.70;;
15645;SDS011;7922;43.622;1.476;2023-04-24T08:02:33;4.87;;;2.30;;
15645;SDS011;7922;43.622;1.476;2023-04-24T08:04:58;3.77;;;1.73;;
15645;SDS011;7922;43.622;1.476;2023-04-24T08:07:23;3.20;;;1.77;;
15645;SDS011;7922;43.622;1.476;2023-04-24T08:09:49;2.67;;;1.67;;
15645;SDS011;7922;43.622;1.476;2023-04-24T08:12:14;3.97;;;1.80;;
15645;SDS011;7922;43.622;1.476;2023-04-24T08:14:39;2.60;;;1.73;;
15645;SDS011;7922;43.622;1.476;2023-04-24T08:17:05;2.73;;;1.70;;
15645;SDS011;7922;43.622;1.476;2023-04-24T08:19:30;6.40;;;1.93;;
15645;SDS011;7922;43.622;1.476;2023-04-24T08:21:55;3.87;;;1.60;;
15645;SDS011;7922;43.622;1.476;2023-04-24T08:24:21;3.73;;;1.50;;
15645;SDS011;7922;43.622;1.476;2023-04-24T08:26:47;4.27;;;1.43;;
15645;SDS011;7922;43.622;1.476;2023-04-24T08:29:13;4.53;;;1.40;;
15645;SDS011;7922;43.622;1.476;2023-04-24T08:31:38;3.50;;;1.47;;
15645;SDS011;7922;43.622;1.476;2023-04-24T08:34:03;5.60;;;1.50;;
15645;SDS011;7922;43.622;1.476;2023-04-24T08:36:29;3.67;;;1.60;;
15645;SDS011;7922;43.622;1.476;2023-04-24T08:38:55;5.27;;;2.40;;
15645;SDS011;7922;43.622;1.476;2023-04-24T08:41:20;5.03;;;2.20;;
15645;SDS011;7922;43.622;1.476;2023-04-24T08:43:46;4.17;;;1.60;;
15645;SDS011;7922;43.622;1.476;2023-04-24T08:46:11;6.30;;;1.50;;
15645;SDS011;7922;43.622;1.476;2023-04-24T08:48:38;9.53;;;2.23;;
15645;SDS011;7922;43.622;1.476;2023-04-24T08:51:04;2.97;;;1.33;;
15645;SDS011;7922;43.622;1.476;2023-04-24T08:53:32;3.23;;;1.30;;
15645;SDS011;7922;43.622;1.476;2023-04-24T08:55:57;6.03;;;2.63;;
15645;SDS011;7922;43.622;1.476;2023-04-24T08:58:26;5.20;;;1.80;;
15645;SDS011;7922;43.622;1.476;2023-04-24T09:00:56;6.67;;;3.27;;
15645;SDS011;7922;43.622;1.476;2023-04-24T09:03:22;4.03;;;1.73;;
15645;SDS011;7922;43.622;1.476;2023-04-24T09:05:49;3.67;;;1.57;;
15645;SDS011;7922;43.622;1.476;2023-04-24T09:08:14;4.40;;;1.43;;
15645;SDS011;7922;43.622;1.476;2023-04-24T09:10:42;5.73;;;1.33;;
15645;SDS011;7922;43.622;1.476;2023-04-24T09:13:07;7.30;;;1.67;;
15645;SDS011;7922;43.622;1.476;2023-04-24T09:15:33;7.53;;;1.93;;
15645;SDS011;7922;43.622;1.476;2023-04-24T09:17:58;4.10;;;1.50;;
15645;SDS011;7922;43.622;1.476;2023-04-24T09:20:23;2.83;;;1.30;;
15645;SDS011;7922;43.622;1.476;2023-04-24T09:22:49;5.27;;;1.40;;
15645;SDS011;7922;43.622;1.476;2023-04-24T09:25:19;7.00;;;1.30;;
15645;SDS011;7922;43.622;1.476;2023-04-24T09:27:44;4.43;;;1.40;;
15645;SDS011;7922;43.622;1.476;2023-04-24T09:30:10;3.57;;;1.10;;
15645;SDS011;7922;43.622;1.476;2023-04-24T09:32:36;4.67;;;1.43;;
15645;SDS011;7922;43.622;1.476;2023-04-24T09:35:05;6.53;;;1.70;;
15645;SDS011;7922;43.622;1.476;2023-04-24T09:37:43;3.73;;;1.57;;
15645;SDS011;7922;43.622;1.476;2023-04-24T09:42:36;3.27;;;1.33;;
15645;SDS011;7922;43.622;1.476;2023-04-24T09:45:01;5.60;;;1.60;;
15645;SDS011;7922;43.622;1.476;2023-04-24T09:47:27;3.90;;;1.30;;
15645;SDS011;7922;43.622;1.476;2023-04-24T09:49:53;3.83;;;1.20;;
15645;SDS011;7922;43.622;1.476;2023-04-24T09:52:22;2.10;;;0.90;;
15645;SDS011;7922;43.622;1.476;2023-04-24T09:54:52;2.73;;;1.10;;
15645;SDS011;7922;43.622;1.476;2023-04-24T09:57:18;3.03;;;1.30;;
15645;SDS011;7922;43.622;1.476;2023-04-24T09:59:45;3.03;;;0.90;;
15645;SDS011;7922;43.622;1.476;2023-04-24T10:02:17;3.23;;;1.10;;
15645;SDS011;7922;43.622;1.476;2023-04-24T10:04:53;2.57;;;0.93;;
15645;SDS011;7922;43.622;1.476;2023-04-24T10:07:20;2.83;;;1.40;;
15645;SDS011;7922;43.622;1.476;2023-04-24T10:09:45;2.43;;;1.00;;
15645;SDS011;7922;43.622;1.476;2023-04-24T10:12:10;2.03;;;1.33;;
15645;SDS011;7922;43.622;1.476;2023-04-24T10:14:37;2.00;;;1.00;;
15645;SDS011;7922;43.622;1.476;2023-04-24T10:17:02;4.13;;;1.20;;
15645;SDS011;7922;43.622;1.476;2023-04-24T10:19:28;3.43;;;1.20;;
15645;SDS011;7922;43.622;1.476;2023-04-24T10:21:55;3.53;;;1.67;;
15645;SDS011;7922;43.622;1.476;2023-04-24T10:24:22;1.90;;;1.17;;
15645;SDS011;7922;43.622;1.476;2023-04-24T10:26:47;1.87;;;0.90;;
15645;SDS011;7922;43.622;1.476;2023-04-24T10:29:13;2.43;;;1.30;;
15645;SDS011;7922;43.622;1.476;2023-04-24T10:31:39;2.53;;;1.30;;
15645;SDS011;7922;43.622;1.476;2023-04-24T10:34:05;2.13;;;1.17;;
15645;SDS011;7922;43.622;1.476;2023-04-24T10:36:32;4.07;;;1.37;;
15645;SDS011;7922;43.622;1.476;2023-04-24T10:39:04;3.53;;;1.37;;
15645;SDS011;7922;43.622;1.476;2023-04-24T10:41:33;2.93;;;1.33;;
15645;SDS011;7922;43.622;1.476;2023-04-24T10:44:03;3.73;;;1.30;;
15645;SDS011;7922;43.622;1.476;2023-04-24T10:46:29;4.07;;;1.37;;
15645;SDS011;7922;43.622;1.476;2023-04-24T10:48:55;1.87;;;1.00;;
15645;SDS011;7922;43.622;1.476;2023-04-24T10:51:22;1.67;;;0.80;;
15645;SDS011;7922;43.622;1.476;2023-04-24T10:53:49;1.40;;;1.20;;
15645;SDS011;7922;43.622;1.476;2023-04-24T10:56:15;2.70;;;1.00;;
15645;SDS011;7922;43.622;1.476;2023-04-24T10:58:42;2.63;;;1.10;;
15645;SDS011;7922;43.622;1.476;2023-04-24T11:01:26;4.53;;;1.27;;
15645;SDS011;7922;43.622;1.476;2023-04-24T11:04:00;4.20;;;1.40;;
15645;SDS011;7922;43.622;1.476;2023-04-24T11:08:58;4.60;;;1.10;;
15645;SDS011;7922;43.622;1.476;2023-04-24T11:11:28;3.13;;;1.10;;
15645;SDS011;7922;43.622;1.476;2023-04-24T11:19:23;2.83;;;1.10;;
15645;SDS011;7922;43.622;1.476;2023-04-24T11:22:00;4.37;;;1.40;;
15645;SDS011;7922;43.622;1.476;2023-04-24T11:29:38;2.93;;;1.40;;
15645;SDS011;7922;43.622;1.476;2023-04-24T11:34:50;3.07;;;1.13;;
15645;SDS011;7922;43.622;1.476;2023-04-24T11:37:17;1.97;;;1.27;;
15645;SDS011;7922;43.622;1.476;2023-04-24T11:39:42;4.67;;;1.30;;
15645;SDS011;7922;43.622;1.476;2023-04-24T11:42:12;3.67;;;1.10;;
15645;SDS011;7922;43.622;1.476;2023-04-24T11:44:41;2.70;;;0.90;;
15645;SDS011;7922;43.622;1.476;2023-04-24T11:47:07;1.63;;;0.97;;
15645;SDS011;7922;43.622;1.476;2023-04-24T11:49:33;2.47;;;0.93;;
15645;SDS011;7922;43.622;1.476;2023-04-24T11:52:01;4.40;;;1.40;;
15645;SDS011;7922;43.622;1.476;2023-04-24T11:54:27;4.77;;;1.50;;
15645;SDS011;7922;43.622;1.476;2023-04-24T11:56:52;4.13;;;1.37;;
15645;SDS011;7922;43.622;1.476;2023-04-24T11:59:18;3.70;;;1.30;;
15645;SDS011;7922;43.622;1.476;2023-04-24T12:01:46;3.80;;;1.43;;
15645;SDS011;7922;43.622;1.476;2023-04-24T12:04:11;2.80;;;1.30;;
15645;SDS011;7922;43.622;1.476;2023-04-24T12:06:37;5.33;;;1.50;;
15645;SDS011;7922;43.622;1.476;2023-04-24T12:09:03;2.20;;;1.00;;
15645;SDS011;7922;43.622;1.476;2023-04-24T12:11:28;7.07;;;1.60;;
15645;SDS011;7922;43.622;1.476;2023-04-24T12:13:53;2.17;;;0.93;;
15645;SDS011;7922;43.622;1.476;2023-04-24T12:16:19;3.03;;;1.37;;
15645;SDS011;7922;43.622;1.476;2023-04-24T12:18:45;4.07;;;1.47;;
15645;SDS011;7922;43.622;1.476;2023-04-24T12:21:20;4.67;;;1.87;;
15645;SDS011;7922;43.622;1.476;2023-04-24T12:23:47;3.37;;;1.00;;
15645;SDS011;7922;43.622;1.476;2023-04-24T12:26:19;2.83;;;1.27;;
15645;SDS011;7922;43.622;1.476;2023-04-24T12:28:46;4.10;;;1.33;;
15645;SDS011;7922;43.622;1.476;2023-04-24T12:31:13;5.43;;;1.37;;
15645;SDS011;7922;43.622;1.476;2023-04-24T12:33:38;3.23;;;1.30;;
15645;SDS011;7922;43.622;1.476;2023-04-24T12:36:03;5.77;;;1.40;;
15645;SDS011;7922;43.622;1.476;2023-04-24T12:38:29;1.93;;;1.50;;
15645;SDS011;7922;43.622;1.476;2023-04-24T12:41:01;5.03;;;1.40;;
15645;SDS011;7922;43.622;1.476;2023-04-24T12:43:30;5.07;;;1.90;;
15645;SDS011;7922;43.622;1.476;2023-04-24T12:45:56;4.47;;;1.23;;
15645;SDS011;7922;43.622;1.476;2023-04-24T12:48:21;2.10;;;1.17;;
15645;SDS011;7922;43.622;1.476;2023-04-24T12:50:46;3.83;;;1.27;;
15645;SDS011;7922;43.622;1.476;2023-04-24T12:53:11;1.53;;;1.20;;
15645;SDS011;7922;43.622;1.476;2023-04-24T12:55:37;2.17;;;1.03;;
15645;SDS011;7922;43.622;1.476;2023-04-24T12:58:02;3.23;;;1.07;;
15645;SDS011;7922;43.622;1.476;2023-04-24T13:00:27;2.70;;;1.20;;
15645;SDS011;7922;43.622;1.476;2023-04-24T13:02:53;2.60;;;1.23;;
15645;SDS011;7922;43.622;1.476;2023-04-24T13:05:18;3.27;;;1.20;;
15645;SDS011;7922;43.622;1.476;2023-04-24T13:07:44;3.40;;;1.03;;
15645;SDS011;7922;43.622;1.476;2023-04-24T13:10:09;1.70;;;0.90;;
15645;SDS011;7922;43.622;1.476;2023-04-24T13:12:34;4.60;;;1.37;;
15645;SDS011;7922;43.622;1.476;2023-04-24T13:15:00;4.43;;;1.30;;
15645;SDS011;7922;43.622;1.476;2023-04-24T13:17:25;2.23;;;1.10;;
15645;SDS011;7922;43.622;1.476;2023-04-24T13:19:51;2.60;;;0.90;;
15645;SDS011;7922;43.622;1.476;2023-04-24T13:22:17;4.87;;;1.20;;
15645;SDS011;7922;43.622;1.476;2023-04-24T13:24:42;5.10;;;1.63;;
15645;SDS011;7922;43.622;1.476;2023-04-24T13:27:08;5.30;;;1.40;;
15645;SDS011;7922;43.622;1.476;2023-04-24T13:29:33;2.63;;;1.40;;
15645;SDS011;7922;43.622;1.476;2023-04-24T13:31:58;2.30;;;1.20;;
15645;SDS011;7922;43.622;1.476;2023-04-24T13:34:24;3.93;;;1.37;;
15645;SDS011;7922;43.622;1.476;2023-04-24T13:36:51;3.17;;;1.23;;
15645;SDS011;7922;43.622;1.476;2023-04-24T13:39:18;2.40;;;1.40;;
15645;SDS011;7922;43.622;1.476;2023-04-24T13:41:43;2.83;;;1.23;;
15645;SDS011;7922;43.622;1.476;2023-04-24T13:44:09;3.83;;;1.40;;
15645;SDS011;7922;43.622;1.476;2023-04-24T13:46:34;4.07;;;1.20;;
15645;SDS011;7922;43.622;1.476;2023-04-24T13:48:59;4.47;;;1.60;;
15645;SDS011;7922;43.622;1.476;2023-04-24T13:51:27;2.30;;;1.23;;
15645;SDS011;7922;43.622;1.476;2023-04-24T13:53:53;2.80;;;1.23;;
15645;SDS011;7922;43.622;1.476;2023-04-24T13:56:18;1.80;;;1.00;;
15645;SDS011;7922;43.622;1.476;2023-04-24T13:58:44;3.10;;;1.40;;
15645;SDS011;7922;43.622;1.476;2023-04-24T14:01:09;1.97;;;1.10;;
15645;SDS011;7922;43.622;1.476;2023-04-24T14:03:35;2.20;;;1.00;;
15645;SDS011;7922;43.622;1.476;2023-04-24T14:06:02;2.13;;;1.10;;
15645;SDS011;7922;43.622;1.476;2023-04-24T14:08:27;2.20;;;1.00;;
15645;SDS011;7922;43.622;1.476;2023-04-24T14:10:53;3.63;;;1.10;;
15645;SDS011;7922;43.622;1.476;2023-04-24T14:13:18;1.30;;;1.00;;
15645;SDS011;7922;43.622;1.476;2023-04-24T14:15:44;2.43;;;1.33;;
15645;SDS011;7922;43.622;1.476;2023-04-24T14:18:10;2.37;;;0.70;;
15645;SDS011;7922;43.622;1.476;2023-04-24T14:20:35;2.40;;;0.90;;
15645;SDS011;7922;43.622;1.476;2023-04-24T14:23:00;2.47;;;1.33;;
15645;SDS011;7922;43.622;1.476;2023-04-24T14:25:26;2.57;;;1.27;;
15645;SDS011;7922;43.622;1.476;2023-04-24T14:27:51;1.87;;;1.20;;
15645;SDS011;7922;43.622;1.476;2023-04-24T14:30:17;3.37;;;1.30;;
15645;SDS011;7922;43.622;1.476;2023-04-24T14:32:43;2.47;;;1.10;;
15645;SDS011;7922;43.622;1.476;2023-04-24T14:35:08;3.67;;;1.13;;
15645;SDS011;7922;43.622;1.476;2023-04-24T14:37:34;2.20;;;1.00;;
15645;SDS011;7922;43.622;1.476;2023-04-24T14:39:59;2.03;;;1.00;;
15645;SDS011;7922;43.622;1.476;2023-04-24T14:42:24;0.83;;;0.80;;
15645;SDS011;7922;43.622;1.476;2023-04-24T14:44:49;2.67;;;1.27;;
15645;SDS011;7922;43.622;1.476;2023-04-24T14:47:15;1.87;;;1.03;;
15645;SDS011;7922;43.622;1.476;2023-04-24T14:49:41;2.40;;;0.93;;
15645;SDS011;7922;43.622;1.476;2023-04-24T14:52:06;2.63;;;1.40;;
15645;SDS011;7922;43.622;1.476;2023-04-24T14:54:31;3.60;;;1.30;;
15645;SDS011;7922;43.622;1.476;2023-04-24T14:56:57;3.23;;;1.40;;
15645;SDS011;7922;43.622;1.476;2023-04-24T14:59:22;4.20;;;1.40;;
15645;SDS011;7922;43.622;1.476;2023-04-24T15:01:47;2.10;;;1.07;;
15645;SDS011;7922;43.622;1.476;2023-04-24T15:04:12;3.43;;;1.40;;
15645;SDS011;7922;43.622;1.476;2023-04-24T15:06:38;3.37;;;1.43;;
15645;SDS011;7922;43.622;1.476;2023-04-24T15:09:03;2.37;;;1.13;;